createdAt,value
2017-02-13T00:00:04.767Z,19.7
2017-02-13T00:02:05.246Z,19.7
2017-02-13T00:04:05.044Z,19.7
2017-02-13T00:06:04.774Z,19.7
2017-02-13T00:08:05.122Z,19.7
2017-02-13T00:10:04.910Z,19.7
2017-02-13T00:12:04.792Z,19.7
2017-02-13T00:14:05.512Z,19.7
2017-02-13T00:16:07.763Z,19.7
2017-02-13T00:18:04.734Z,19.7
2017-02-13T00:20:08.246Z,19.7
2017-02-13T00:22:05.015Z,19.7
2017-02-13T00:24:05.459Z,19.7
2017-02-13T00:26:08.100Z,19.7
2017-02-13T00:28:07.544Z,19.7
2017-02-13T00:30:20.053Z,19.7
2017-02-13T00:32:05.175Z,19.7
2017-02-13T00:34:05.013Z,19.7
2017-02-13T00:36:04.739Z,19.7
2017-02-13T00:38:10.642Z,19.7
2017-02-13T00:40:05.389Z,19.7
2017-02-13T00:42:05.167Z,19.7
2017-02-13T00:44:05.075Z,19.7
2017-02-13T00:46:04.934Z,19.7
2017-02-13T00:48:04.650Z,19.7
2017-02-13T00:50:05.300Z,19.7
2017-02-13T00:52:07.566Z,19.7
2017-02-13T00:54:05.333Z,19.7
2017-02-13T00:56:05.912Z,19.7
2017-02-13T00:58:04.680Z,19.7
2017-02-13T01:00:05.552Z,19.7
2017-02-13T01:02:08.141Z,19.7
2017-02-13T01:04:05.091Z,19.7
2017-02-13T01:06:04.845Z,19.7
2017-02-13T01:08:05.938Z,19.7
2017-02-13T01:10:04.741Z,19.7
2017-02-13T01:12:08.047Z,19.7
2017-02-13T01:14:05.116Z,19.7
2017-02-13T01:16:05.273Z,19.7
2017-02-13T01:18:05.301Z,19.7
2017-02-13T01:20:05.450Z,19.7
2017-02-13T01:22:05.272Z,19.7
2017-02-13T01:24:05.083Z,19.7
2017-02-13T01:26:05.212Z,19.7
2017-02-13T01:28:10.015Z,19.7
2017-02-13T01:30:04.733Z,19.7
2017-02-13T01:32:05.057Z,19.7
2017-02-13T01:34:07.343Z,19.7
2017-02-13T01:36:04.663Z,19.7
2017-02-13T01:38:05.194Z,19.7
2017-02-13T01:40:07.459Z,19.7
2017-02-13T01:42:05.645Z,19.7
2017-02-13T01:44:05.681Z,19.7
2017-02-13T01:46:05.403Z,19.6
2017-02-13T01:48:08.087Z,19.7
2017-02-13T01:50:05.183Z,19.7
2017-02-13T01:52:07.484Z,19.7
2017-02-13T01:54:07.291Z,19.7
2017-02-13T01:56:05.342Z,19.7
2017-02-13T01:58:05.294Z,19.7
2017-02-13T02:00:07.626Z,19.7
2017-02-13T02:02:07.993Z,19.7
2017-02-13T02:04:05.060Z,19.6
2017-02-13T02:06:04.821Z,19.6
2017-02-13T02:08:08.381Z,19.7
2017-02-13T02:10:07.282Z,19.7
2017-02-13T02:12:04.986Z,19.7
2017-02-13T02:14:04.977Z,19.6
2017-02-13T02:16:05.218Z,19.6
2017-02-13T02:18:05.158Z,19.7
2017-02-13T02:20:05.263Z,19.7
2017-02-13T02:22:07.551Z,19.7
2017-02-13T02:24:05.297Z,19.6
2017-02-13T02:26:08.202Z,19.6
2017-02-13T02:28:13.114Z,19.6
2017-02-13T02:30:04.835Z,19.7
2017-02-13T02:32:05.392Z,19.7
2017-02-13T02:34:05.146Z,19.6
2017-02-13T02:36:05.275Z,19.6
2017-02-13T02:38:05.480Z,19.6
2017-02-13T02:40:05.091Z,19.6
2017-02-13T02:42:05.522Z,19.6
2017-02-13T02:44:05.626Z,19.6
2017-02-13T02:46:05.347Z,19.7
2017-02-13T02:48:05.164Z,19.7
2017-02-13T02:50:07.643Z,19.6
2017-02-13T02:52:05.537Z,19.6
2017-02-13T02:54:04.820Z,19.6
2017-02-13T02:56:05.926Z,19.6
2017-02-13T02:58:04.792Z,19.6
2017-02-13T03:00:05.571Z,19.7
2017-02-13T03:02:07.911Z,19.6
2017-02-13T03:04:04.714Z,19.6
2017-02-13T03:06:05.517Z,19.6
2017-02-13T03:08:07.725Z,19.6
2017-02-13T03:10:07.495Z,19.6
2017-02-13T03:12:07.328Z,19.6
2017-02-13T03:14:05.387Z,19.6
2017-02-13T03:16:05.150Z,19.6
2017-02-13T03:18:07.680Z,19.6
2017-02-13T03:20:08.023Z,19.6
2017-02-13T03:22:04.796Z,19.6
2017-02-13T03:24:05.875Z,19.6
2017-02-13T03:26:07.585Z,19.7
2017-02-13T03:28:05.355Z,19.6
2017-02-13T03:30:07.671Z,19.6
2017-02-13T03:32:07.613Z,19.6
2017-02-13T03:34:05.387Z,19.6
2017-02-13T03:36:05.111Z,19.6
2017-02-13T03:38:07.747Z,19.6
2017-02-13T03:40:08.258Z,19.6
2017-02-13T03:42:05.575Z,19.6
2017-02-13T03:44:05.669Z,19.6
2017-02-13T03:46:05.409Z,19.6
2017-02-13T03:48:05.092Z,19.6
2017-02-13T03:50:05.645Z,19.6
2017-02-13T03:52:07.655Z,19.6
2017-02-13T03:54:05.407Z,19.6
2017-02-13T03:56:13.146Z,19.6
2017-02-13T03:58:04.903Z,19.6
2017-02-13T04:00:04.584Z,19.7
2017-02-13T04:02:05.705Z,19.6
2017-02-13T04:04:05.434Z,19.6
2017-02-13T04:06:12.807Z,19.6
2017-02-13T04:08:05.731Z,19.6
2017-02-13T04:10:04.978Z,19.6
2017-02-13T04:12:04.837Z,19.6
2017-02-13T04:14:05.914Z,19.6
2017-02-13T04:16:04.672Z,19.6
2017-02-13T04:18:04.792Z,19.6
2017-02-13T04:20:08.220Z,19.7
2017-02-13T04:22:04.952Z,19.6
2017-02-13T04:24:07.365Z,19.6
2017-02-13T04:26:05.515Z,19.6
2017-02-13T04:28:05.626Z,19.6
2017-02-13T04:30:05.468Z,19.6
2017-02-13T04:32:05.508Z,19.6
2017-02-13T04:34:05.328Z,19.7
2017-02-13T04:36:05.646Z,19.6
2017-02-13T04:38:05.757Z,19.6
2017-02-13T04:40:05.491Z,19.6
2017-02-13T04:42:05.232Z,19.6
2017-02-13T04:44:05.365Z,19.6
2017-02-13T04:46:05.112Z,19.6
2017-02-13T04:48:07.956Z,19.6
2017-02-13T04:50:07.621Z,19.6
2017-02-13T04:52:05.392Z,19.6
2017-02-13T04:54:04.667Z,19.6
2017-02-13T04:56:05.784Z,19.6
2017-02-13T04:58:05.486Z,19.6
2017-02-13T05:00:04.787Z,19.6
2017-02-13T05:02:05.654Z,19.6
2017-02-13T05:04:07.941Z,19.6
2017-02-13T05:06:04.687Z,19.6
2017-02-13T05:08:05.102Z,19.6
2017-02-13T05:10:04.901Z,19.6
2017-02-13T05:12:12.212Z,19.6
2017-02-13T05:14:10.797Z,19.6
2017-02-13T05:16:05.834Z,19.6
2017-02-13T05:18:04.774Z,19.6
2017-02-13T05:20:05.832Z,19.6
2017-02-13T05:22:04.653Z,19.6
2017-02-13T05:24:05.649Z,19.6
2017-02-13T05:26:05.056Z,19.6
2017-02-13T05:28:04.957Z,19.6
2017-02-13T05:30:05.205Z,19.6
2017-02-13T05:32:05.786Z,19.6
2017-02-13T05:34:05.096Z,19.5
2017-02-13T05:36:05.344Z,19.6
2017-02-13T05:38:05.366Z,19.6
2017-02-13T05:40:07.135Z,19.6
2017-02-13T05:42:09.947Z,19.6
2017-02-13T05:44:04.894Z,19.6
2017-02-13T05:46:04.841Z,19.5
2017-02-13T05:48:08.456Z,19.5
2017-02-13T05:50:05.570Z,19.5
2017-02-13T05:52:05.288Z,19.6
2017-02-13T05:54:05.074Z,19.6
2017-02-13T05:56:04.912Z,19.5
2017-02-13T05:58:05.335Z,19.5
2017-02-13T06:00:05.164Z,19.5
2017-02-13T06:02:10.115Z,19.5
2017-02-13T06:04:04.978Z,19.5
2017-02-13T06:06:07.203Z,19.5
2017-02-13T06:08:05.110Z,19.5
2017-02-13T06:10:04.913Z,19.5
2017-02-13T06:12:04.663Z,19.6
2017-02-13T06:14:05.748Z,19.5
2017-02-13T06:16:05.475Z,19.5
2017-02-13T06:18:05.447Z,19.5
2017-02-13T06:20:05.535Z,19.5
2017-02-13T06:22:05.335Z,19.5
2017-02-13T06:24:05.082Z,19.5
2017-02-13T06:26:05.154Z,19.5
2017-02-13T06:28:04.960Z,19.5
2017-02-13T06:30:04.676Z,19.5
2017-02-13T06:32:05.496Z,19.5
2017-02-13T06:34:05.260Z,19.5
2017-02-13T06:36:05.403Z,19.5
2017-02-13T06:38:05.030Z,19.5
2017-02-13T06:40:04.792Z,19.5
2017-02-13T06:42:10.584Z,19.5
2017-02-13T06:44:08.274Z,19.5
2017-02-13T06:46:05.104Z,19.5
2017-02-13T06:48:05.476Z,19.5
2017-02-13T06:50:05.705Z,19.5
2017-02-13T06:52:05.685Z,19.5
2017-02-13T06:54:05.502Z,19.5
2017-02-13T06:56:05.405Z,19.5
2017-02-13T06:58:07.649Z,19.5
2017-02-13T07:00:04.901Z,19.5
2017-02-13T07:02:04.893Z,19.5
2017-02-13T07:04:10.653Z,19.5
2017-02-13T07:06:05.359Z,19.5
2017-02-13T07:08:07.953Z,19.5
2017-02-13T07:10:04.684Z,19.5
2017-02-13T07:12:05.479Z,19.5
2017-02-13T07:14:05.512Z,19.5
2017-02-13T07:16:07.728Z,19.5
2017-02-13T07:18:04.638Z,19.5
2017-02-13T07:20:05.425Z,19.5
2017-02-13T07:22:04.657Z,19.6
2017-02-13T07:24:05.256Z,19.5
2017-02-13T07:26:05.093Z,19.6
2017-02-13T07:28:04.844Z,19.6
2017-02-13T07:30:05.557Z,19.6
2017-02-13T07:32:04.892Z,19.6
2017-02-13T07:34:07.657Z,19.6
2017-02-13T07:36:05.499Z,19.6
2017-02-13T07:38:10.476Z,19.6
2017-02-13T07:40:10.430Z,19.6
2017-02-13T07:42:05.194Z,19.7
2017-02-13T07:44:05.248Z,19.7
2017-02-13T07:46:04.999Z,19.7
2017-02-13T07:48:04.742Z,19.7
2017-02-13T07:50:05.572Z,19.7
2017-02-13T07:52:05.286Z,19.7
2017-02-13T07:54:05.010Z,19.7
2017-02-13T07:56:07.674Z,19.8
2017-02-13T07:58:05.382Z,19.8
2017-02-13T08:00:05.359Z,19.9
2017-02-13T08:02:05.258Z,19.9
2017-02-13T08:04:08.233Z,19.9
2017-02-13T08:06:04.947Z,19.9
2017-02-13T08:08:04.823Z,20
2017-02-13T08:10:05.590Z,20
2017-02-13T08:12:05.742Z,20.1
2017-02-13T08:14:12.895Z,20.1
2017-02-13T08:16:05.178Z,20.1
2017-02-13T08:18:05.100Z,20.2
2017-02-13T08:20:05.443Z,20.2
2017-02-13T08:22:05.270Z,20.2
2017-02-13T08:24:05.527Z,20.3
2017-02-13T08:26:05.550Z,20.3
2017-02-13T08:28:08.182Z,20.4
2017-02-13T08:30:04.979Z,20.4
2017-02-13T08:32:07.350Z,20.5
2017-02-13T08:34:10.220Z,20.5
2017-02-13T08:36:07.473Z,20.5
2017-02-13T08:38:04.940Z,20.5
2017-02-13T08:40:04.662Z,20.6
2017-02-13T08:42:05.384Z,20.6
2017-02-13T08:44:05.492Z,20.7
2017-02-13T08:46:05.301Z,20.7
2017-02-13T08:48:04.613Z,20.7
2017-02-13T08:50:08.148Z,20.8
2017-02-13T08:52:04.962Z,20.8
2017-02-13T08:54:04.804Z,20.8
2017-02-13T08:56:08.390Z,20.9
2017-02-13T08:58:05.141Z,20.9
2017-02-13T09:00:07.528Z,21.1
2017-02-13T09:02:05.756Z,21.1
2017-02-13T09:04:05.037Z,21.2
2017-02-13T09:06:05.311Z,21.2
2017-02-13T09:08:05.376Z,21.3
2017-02-13T09:10:05.130Z,21.4
2017-02-13T09:12:04.962Z,21.5
2017-02-13T09:14:10.092Z,21.5
2017-02-13T09:16:05.135Z,21.5
2017-02-13T09:18:05.064Z,21.5
2017-02-13T09:20:04.848Z,21.5
2017-02-13T09:22:05.649Z,21.5
2017-02-13T09:24:07.922Z,21.4
2017-02-13T09:26:05.017Z,21.4
2017-02-13T09:28:04.774Z,21.4
2017-02-13T09:30:08.072Z,21.4
2017-02-13T09:32:10.151Z,21.4
2017-02-13T09:34:04.871Z,21.4
2017-02-13T09:36:08.145Z,21.4
2017-02-13T09:38:04.999Z,21.4
2017-02-13T09:40:09.854Z,21.5
2017-02-13T09:42:05.525Z,21.5
2017-02-13T09:44:08.064Z,21.6
2017-02-13T09:46:07.392Z,21.7
2017-02-13T09:48:07.804Z,21.8
2017-02-13T09:50:06.046Z,21.7
2017-02-13T09:52:04.757Z,21.8
2017-02-13T09:54:04.959Z,21.7
2017-02-13T09:56:04.874Z,21.6
2017-02-13T09:58:04.652Z,21.6
2017-02-13T10:00:05.393Z,21.6
2017-02-13T10:02:05.317Z,21.5
2017-02-13T10:04:07.740Z,21.4
2017-02-13T10:06:12.710Z,21.3
2017-02-13T10:08:08.244Z,21.3
2017-02-13T10:10:05.098Z,21.3
2017-02-13T10:12:04.857Z,21.2
2017-02-13T10:14:05.936Z,21.2
2017-02-13T10:16:07.219Z,21.1
2017-02-13T10:18:05.350Z,21.1
2017-02-13T10:20:05.426Z,21.1
2017-02-13T10:22:04.698Z,21.1
2017-02-13T10:24:08.018Z,21
2017-02-13T10:26:05.308Z,21
2017-02-13T10:28:05.154Z,21
2017-02-13T10:30:04.936Z,20.9
2017-02-13T10:32:04.968Z,20.9
2017-02-13T10:34:04.695Z,20.9
2017-02-13T10:36:08.281Z,20.9
2017-02-13T10:38:05.373Z,20.8
2017-02-13T10:40:05.109Z,20.8
2017-02-13T10:42:04.905Z,20.8
2017-02-13T10:44:05.000Z,20.8
2017-02-13T10:46:04.804Z,20.8
2017-02-13T10:48:10.657Z,20.7
2017-02-13T10:50:08.004Z,20.7
2017-02-13T10:52:05.597Z,20.7
2017-02-13T10:54:05.341Z,20.7
2017-02-13T10:56:05.214Z,20.7
2017-02-13T10:58:04.988Z,20.7
2017-02-13T11:00:04.791Z,20.6
2017-02-13T11:02:05.860Z,20.6
2017-02-13T11:04:05.574Z,20.6
2017-02-13T11:06:07.917Z,20.5
2017-02-13T11:08:05.493Z,20.6
2017-02-13T11:10:05.224Z,20.5
2017-02-13T11:12:04.973Z,20.5
2017-02-13T11:14:10.199Z,20.5
2017-02-13T11:16:07.546Z,20.5
2017-02-13T11:18:05.605Z,20.4
2017-02-13T11:20:05.639Z,20.5
2017-02-13T11:22:05.387Z,20.5
2017-02-13T11:24:05.289Z,20.5
2017-02-13T11:26:05.130Z,20.5
2017-02-13T11:28:04.863Z,20.4
2017-02-13T11:30:04.610Z,20.4
2017-02-13T11:32:05.573Z,20.4
2017-02-13T11:34:05.304Z,20.4
2017-02-13T11:36:05.079Z,20.4
2017-02-13T11:38:07.679Z,20.4
2017-02-13T11:40:07.854Z,20.3
2017-02-13T11:42:05.743Z,20.3
2017-02-13T11:44:05.858Z,20.3
2017-02-13T11:46:10.673Z,20.3
2017-02-13T11:48:07.944Z,20.3
2017-02-13T11:50:05.287Z,20.3
2017-02-13T11:52:04.881Z,20.3
2017-02-13T11:54:05.584Z,20.3
2017-02-13T11:56:05.717Z,20.3
2017-02-13T11:58:05.475Z,20.3
2017-02-13T12:00:07.826Z,20.2
2017-02-13T12:02:08.275Z,20.2
2017-02-13T12:04:05.041Z,20.2
2017-02-13T12:06:04.812Z,20.2
2017-02-13T12:08:05.267Z,20.2
2017-02-13T12:10:07.884Z,20.2
2017-02-13T12:12:04.790Z,20.2
2017-02-13T12:14:05.884Z,20.2
2017-02-13T12:16:05.148Z,20.2
2017-02-13T12:18:05.073Z,20.2
2017-02-13T12:20:07.695Z,20.2
2017-02-13T12:22:04.720Z,20.2
2017-02-13T12:24:08.028Z,20.2
2017-02-13T12:26:10.155Z,20.1
2017-02-13T12:28:07.801Z,20.1
2017-02-13T12:30:04.655Z,20.2
2017-02-13T12:32:05.610Z,20.1
2017-02-13T12:34:05.319Z,20.1
2017-02-13T12:36:05.001Z,20.1
2017-02-13T12:38:05.097Z,20.1
2017-02-13T12:40:04.862Z,20.1
2017-02-13T12:42:05.611Z,20.1
2017-02-13T12:45:31.320Z,20.1
2017-02-13T12:46:04.624Z,20.1
2017-02-13T12:48:05.383Z,20.1
2017-02-13T12:50:05.624Z,20.1
2017-02-13T12:52:05.364Z,20.1
2017-02-13T12:54:05.056Z,20.1
2017-02-13T12:56:05.606Z,20.1
2017-02-13T12:58:05.077Z,20.1
2017-02-13T13:00:05.140Z,20.1
2017-02-13T13:02:04.986Z,20.1
2017-02-13T13:04:05.374Z,20.1
2017-02-13T13:06:09.716Z,20
2017-02-13T13:08:05.623Z,20.1
2017-02-13T13:10:05.333Z,20
2017-02-13T13:12:05.059Z,20
2017-02-13T13:14:07.467Z,20
2017-02-13T13:16:05.299Z,20
2017-02-13T13:18:05.293Z,20
2017-02-13T13:20:05.920Z,20
2017-02-13T13:22:04.664Z,20
2017-02-13T13:24:05.377Z,20
2017-02-13T13:26:13.048Z,20
2017-02-13T13:28:07.844Z,20
2017-02-13T13:30:05.576Z,20
2017-02-13T13:32:05.188Z,20
2017-02-13T13:34:04.894Z,20
2017-02-13T13:36:06.865Z,20
2017-02-13T13:38:10.256Z,20
2017-02-13T13:40:06.559Z,20
2017-02-13T13:42:05.321Z,20
2017-02-13T13:44:05.434Z,20
2017-02-13T13:46:07.770Z,20
2017-02-13T13:48:05.840Z,20
2017-02-13T13:50:05.981Z,20
2017-02-13T13:52:04.761Z,20
2017-02-13T13:54:05.077Z,20
2017-02-13T13:56:05.093Z,20
2017-02-13T13:58:04.863Z,20
2017-02-13T14:00:04.627Z,20
2017-02-13T14:02:05.707Z,20
2017-02-13T14:04:05.766Z,20
2017-02-13T14:06:05.488Z,20
2017-02-13T14:08:05.732Z,19.9
2017-02-13T14:10:05.456Z,20
2017-02-13T14:12:04.742Z,20
2017-02-13T14:14:05.881Z,20
2017-02-13T14:16:07.237Z,20
2017-02-13T14:18:05.204Z,20
2017-02-13T14:20:07.828Z,20
2017-02-13T14:22:05.584Z,20
2017-02-13T14:24:10.599Z,20
2017-02-13T14:26:05.574Z,20
2017-02-13T14:28:04.838Z,20
2017-02-13T14:30:05.582Z,20
2017-02-13T14:32:05.716Z,20
2017-02-13T14:34:05.589Z,19.9
2017-02-13T14:36:05.696Z,20
2017-02-13T14:38:05.573Z,20
2017-02-13T14:40:07.871Z,20
2017-02-13T14:42:04.693Z,20
2017-02-13T14:44:05.301Z,20
2017-02-13T14:46:05.137Z,20
2017-02-13T14:48:04.896Z,20
2017-02-13T14:50:09.963Z,20
2017-02-13T14:52:07.679Z,20
2017-02-13T14:54:05.377Z,20
2017-02-13T14:56:05.423Z,20
2017-02-13T14:58:05.241Z,19.9
2017-02-13T15:00:05.499Z,20
2017-02-13T15:02:05.755Z,20
2017-02-13T15:04:08.004Z,20
2017-02-13T15:06:04.737Z,20
2017-02-13T15:08:05.797Z,20
2017-02-13T15:10:05.047Z,20
2017-02-13T15:12:04.852Z,20
2017-02-13T15:14:10.725Z,20
2017-02-13T15:16:05.437Z,20
2017-02-13T15:18:04.917Z,20
2017-02-13T15:20:04.834Z,20
2017-02-13T15:22:04.571Z,20
2017-02-13T15:24:07.978Z,20
2017-02-13T15:26:09.760Z,20
2017-02-13T15:28:05.186Z,19.9
2017-02-13T15:30:04.989Z,20
2017-02-13T15:32:05.546Z,20
2017-02-13T15:34:12.435Z,20.1
2017-02-13T15:36:05.159Z,20.1
2017-02-13T15:38:05.033Z,20.1
2017-02-13T15:40:05.135Z,20.2
2017-02-13T15:42:04.940Z,20.2
2017-02-13T15:44:07.563Z,20.3
2017-02-13T15:46:04.853Z,20.3
2017-02-13T15:48:07.190Z,20.3
2017-02-13T15:50:05.613Z,20.3
2017-02-13T15:52:05.445Z,20.4
2017-02-13T15:54:04.711Z,20.4
2017-02-13T15:56:05.834Z,20.4
2017-02-13T15:58:05.581Z,20.4
2017-02-13T16:00:05.548Z,20.4
2017-02-13T16:02:07.925Z,20.5
2017-02-13T16:04:04.654Z,20.5
2017-02-13T16:06:05.413Z,20.5
2017-02-13T16:08:05.537Z,20.4
2017-02-13T16:10:05.254Z,20.4
2017-02-13T16:12:05.335Z,20.4
2017-02-13T16:14:05.825Z,20.4
2017-02-13T16:16:04.802Z,20.4
2017-02-13T16:18:04.804Z,20.4
2017-02-13T16:20:05.883Z,20.4
2017-02-13T16:22:05.197Z,20.4
2017-02-13T16:24:10.060Z,20.3
2017-02-13T16:26:04.933Z,20.3
2017-02-13T16:28:05.248Z,20.3
2017-02-13T16:30:07.713Z,20.3
2017-02-13T16:32:05.903Z,20.3
2017-02-13T16:34:04.878Z,20.3
2017-02-13T16:36:08.111Z,20.2
2017-02-13T16:38:05.723Z,20.2
2017-02-13T16:40:04.957Z,20.2
2017-02-13T16:42:05.659Z,20.2
2017-02-13T16:44:05.289Z,20.2
2017-02-13T16:46:05.352Z,20.2
2017-02-13T16:48:05.830Z,20.2
2017-02-13T16:50:05.126Z,20.2
2017-02-13T16:52:04.638Z,20.2
2017-02-13T16:54:05.396Z,20.2
2017-02-13T16:56:05.330Z,20.1
2017-02-13T16:58:05.268Z,20.2
2017-02-13T17:00:05.413Z,20.1
2017-02-13T17:02:05.163Z,20.1
2017-02-13T17:04:05.492Z,20.1
2017-02-13T17:06:05.220Z,20.1
2017-02-13T17:08:05.076Z,20.1
2017-02-13T17:10:09.927Z,20.1
2017-02-13T17:12:07.294Z,20.1
2017-02-13T17:14:05.310Z,20.1
2017-02-13T17:16:05.451Z,20.1
2017-02-13T17:18:05.402Z,20
2017-02-13T17:20:05.617Z,20
2017-02-13T17:22:05.309Z,20
2017-02-13T17:24:07.599Z,20
2017-02-13T17:26:05.381Z,20
2017-02-13T17:28:05.350Z,20
2017-02-13T17:30:05.641Z,20
2017-02-13T17:32:05.804Z,20
2017-02-13T17:34:05.544Z,20
2017-02-13T17:36:05.269Z,20
2017-02-13T17:38:05.145Z,20
2017-02-13T17:40:05.388Z,20
2017-02-13T17:42:05.172Z,20
2017-02-13T17:44:05.070Z,20
2017-02-13T17:46:05.321Z,20
2017-02-13T17:48:05.189Z,20
2017-02-13T17:50:05.210Z,20
2017-02-13T17:52:04.898Z,20
2017-02-13T17:54:05.118Z,20
2017-02-13T17:56:06.084Z,20
2017-02-13T17:58:06.660Z,20
2017-02-13T18:00:05.802Z,20
2017-02-13T18:02:05.942Z,20
2017-02-13T18:04:05.486Z,20
2017-02-13T18:06:05.632Z,20
2017-02-13T18:10:05.500Z,20
2017-02-13T18:12:10.503Z,20
2017-02-13T18:14:04.697Z,20
2017-02-13T18:16:08.123Z,20
2017-02-13T18:18:07.385Z,20.1
2017-02-13T18:20:05.056Z,20.1
2017-02-13T18:22:08.058Z,20.1
2017-02-13T18:24:15.862Z,20.1
2017-02-13T18:31:08.514Z,20.1
2017-02-13T18:32:10.150Z,20.1
2017-02-13T18:34:05.476Z,20.1
2017-02-13T18:36:07.800Z,20.1
2017-02-13T18:38:05.544Z,20.1
2017-02-13T18:40:06.686Z,20.1
2017-02-13T18:42:04.995Z,20.1
2017-02-13T18:44:04.686Z,20.1
2017-02-13T18:46:05.753Z,20.1
2017-02-13T18:48:04.776Z,20.1
2017-02-13T18:50:05.574Z,20.1
2017-02-13T18:52:05.688Z,20.1
2017-02-13T18:54:05.612Z,20.1
2017-02-13T18:56:05.431Z,20.1
2017-02-13T18:58:08.045Z,20.1
2017-02-13T19:00:04.771Z,20.1
2017-02-13T19:02:05.512Z,20.1
2017-02-13T19:04:05.622Z,20.2
2017-02-13T19:06:15.460Z,20.1
2017-02-13T19:08:05.119Z,20.1
2017-02-13T19:10:05.521Z,20.1
2017-02-13T19:12:05.282Z,20.1
2017-02-13T19:14:05.589Z,20.1
2017-02-13T19:16:08.214Z,20.1
2017-02-13T19:18:05.256Z,20.1
2017-02-13T19:20:07.539Z,20.1
2017-02-13T19:22:05.470Z,20.1
2017-02-13T19:24:05.633Z,20.1
2017-02-13T19:26:05.371Z,20.1
2017-02-13T19:28:05.207Z,20.1
2017-02-13T19:30:05.035Z,20.1
2017-02-13T19:32:04.771Z,20.1
2017-02-13T19:34:05.582Z,20.1
2017-02-13T19:36:05.293Z,20.1
2017-02-13T19:38:05.085Z,20.1
2017-02-13T19:40:05.213Z,20.1
2017-02-13T19:42:05.192Z,20.1
2017-02-13T19:44:04.909Z,20.1
2017-02-13T19:46:05.692Z,20.1
2017-02-13T19:48:05.000Z,20.1
2017-02-13T19:50:04.716Z,20.1
2017-02-13T19:52:05.710Z,20.1
2017-02-13T19:54:07.248Z,20.1
2017-02-13T19:56:07.988Z,20.1
2017-02-13T19:58:04.909Z,20.1
2017-02-13T20:00:04.884Z,20.1
2017-02-13T20:02:07.173Z,20.1
2017-02-13T20:04:05.248Z,20.1
2017-02-13T20:06:05.213Z,20.1
2017-02-13T20:08:05.171Z,20.1
2017-02-13T20:10:06.071Z,20.1
2017-02-13T20:12:10.087Z,20.1
2017-02-13T20:14:04.814Z,20.1
2017-02-13T20:16:05.641Z,20.1
2017-02-13T20:18:05.622Z,20.1
2017-02-13T20:20:04.937Z,20.1
2017-02-13T20:22:05.011Z,20.1
2017-02-13T20:24:04.943Z,20.1
2017-02-13T20:26:04.818Z,20.1
2017-02-13T20:28:05.222Z,20.1
2017-02-13T20:30:05.155Z,20.1
2017-02-13T20:32:04.912Z,20.1
2017-02-13T20:34:05.018Z,20.1
2017-02-13T20:36:04.973Z,20.1
2017-02-13T20:38:05.364Z,20
2017-02-13T20:40:05.215Z,20
2017-02-13T20:42:07.515Z,20
2017-02-13T20:44:10.696Z,20
2017-02-13T20:46:05.825Z,20
2017-02-13T20:48:05.823Z,20
2017-02-13T20:50:05.844Z,20
2017-02-13T20:52:05.146Z,20
2017-02-13T20:54:04.671Z,20
2017-02-13T20:56:05.156Z,20
2017-02-13T20:58:05.975Z,20
2017-02-13T21:00:12.287Z,20
2017-02-13T21:02:04.998Z,20
2017-02-13T21:04:07.575Z,20
2017-02-13T21:06:05.551Z,19.9
2017-02-13T21:08:04.762Z,19.9
2017-02-13T21:10:09.824Z,19.9
2017-02-13T21:12:05.600Z,19.9
2017-02-13T21:14:07.327Z,19.9
2017-02-13T21:16:05.323Z,19.9
2017-02-13T21:18:05.468Z,19.9
2017-02-13T21:20:06.210Z,19.9
2017-02-13T21:22:05.176Z,19.9
2017-02-13T21:24:04.883Z,19.9
2017-02-13T21:26:04.895Z,19.9
2017-02-13T21:28:05.543Z,19.9
2017-02-13T21:30:05.307Z,19.9
2017-02-13T21:32:05.479Z,19.9
2017-02-13T21:34:05.598Z,19.9
2017-02-13T21:36:07.919Z,19.8
2017-02-13T21:38:05.613Z,19.8
2017-02-13T21:40:05.291Z,19.8
2017-02-13T21:42:05.034Z,19.8
2017-02-13T21:44:04.957Z,19.8
2017-02-13T21:46:07.375Z,19.8
2017-02-13T21:48:07.779Z,19.8
2017-02-13T21:50:04.758Z,19.8
2017-02-13T21:52:08.403Z,19.8
2017-02-13T21:54:07.200Z,19.8
2017-02-13T21:56:04.902Z,19.8
2017-02-13T21:58:05.578Z,19.7
2017-02-13T22:00:04.957Z,19.8
2017-02-13T22:02:04.675Z,19.8
2017-02-13T22:04:05.755Z,19.7
2017-02-13T22:06:05.569Z,19.7
2017-02-13T22:08:05.318Z,19.8
2017-02-13T22:10:05.383Z,19.8
2017-02-13T22:12:05.153Z,19.7
2017-02-13T22:14:05.498Z,19.7
2017-02-13T22:16:05.631Z,19.7
2017-02-13T22:18:04.616Z,19.7
2017-02-13T22:20:05.493Z,19.7
2017-02-13T22:22:05.482Z,19.7
2017-02-13T22:24:08.030Z,19.7
2017-02-13T22:26:06.301Z,19.7
2017-02-13T22:28:05.288Z,19.7
2017-02-13T22:30:05.291Z,19.7
2017-02-13T22:32:05.574Z,19.7
2017-02-13T22:34:07.946Z,19.7
2017-02-13T22:36:05.015Z,19.7
2017-02-13T22:38:07.280Z,19.7
2017-02-13T22:40:08.167Z,19.7
2017-02-13T22:42:04.924Z,19.7
2017-02-13T22:44:04.664Z,19.7
2017-02-13T22:46:07.759Z,19.7
2017-02-13T22:48:05.589Z,19.7
2017-02-13T22:50:07.344Z,19.7
2017-02-13T22:52:05.192Z,19.7
2017-02-13T22:54:07.472Z,19.7
2017-02-13T22:56:07.720Z,19.7
2017-02-13T22:58:07.316Z,19.7
2017-02-13T23:00:10.122Z,19.7
2017-02-13T23:02:04.867Z,19.7
2017-02-13T23:04:05.855Z,19.7
2017-02-13T23:06:05.547Z,19.6
2017-02-13T23:08:04.968Z,19.7
2017-02-13T23:10:04.964Z,19.6
2017-02-13T23:12:04.780Z,19.6
2017-02-13T23:14:08.104Z,19.6
2017-02-13T23:16:05.727Z,19.6
2017-02-13T23:18:04.708Z,19.6
2017-02-13T23:20:04.583Z,19.6
2017-02-13T23:22:05.481Z,19.6
2017-02-13T23:24:05.085Z,19.6
2017-02-13T23:26:07.334Z,19.6
2017-02-13T23:28:15.484Z,19.6
2017-02-13T23:30:07.365Z,19.6
2017-02-13T23:32:05.051Z,19.6
2017-02-13T23:34:05.053Z,19.6
2017-02-13T23:36:05.291Z,19.6
2017-02-13T23:38:05.050Z,19.6
2017-02-13T23:40:04.990Z,19.6
2017-02-13T23:42:04.789Z,19.6
2017-02-13T23:44:05.563Z,19.6
2017-02-13T23:46:05.106Z,19.6
2017-02-13T23:48:04.838Z,19.6
2017-02-13T23:50:05.602Z,19.6
2017-02-13T23:52:04.985Z,19.6
2017-02-13T23:54:04.685Z,19.6
2017-02-13T23:56:05.783Z,19.6
2017-02-13T23:58:05.912Z,19.6
